createdAt,value
2018-05-18T00:01:50.687Z,55.73
2018-05-18T00:04:16.711Z,67.90
2018-05-18T00:06:43.479Z,68.83
2018-05-18T00:09:09.515Z,60.73
2018-05-18T00:11:35.542Z,60.30
2018-05-18T00:14:01.601Z,54.97
2018-05-18T00:16:27.617Z,57.03
2018-05-18T00:18:53.633Z,54.90
2018-05-18T00:21:20.402Z,52.83
2018-05-18T00:23:46.431Z,55.00
2018-05-18T00:26:13.186Z,56.53
2018-05-18T00:28:40.006Z,60.77
2018-05-18T00:31:05.993Z,60.73
2018-05-18T00:33:32.024Z,62.47
2018-05-18T00:35:58.046Z,50.73
2018-05-18T00:38:24.806Z,56.03
2018-05-18T00:40:51.561Z,52.77
2018-05-18T00:43:17.575Z,74.13
2018-05-18T00:45:44.346Z,59.67
2018-05-18T00:48:11.105Z,66.33
2018-05-18T00:50:37.138Z,69.73
2018-05-18T00:53:03.164Z,62.80
2018-05-18T00:55:42.000Z,73.27
2018-05-18T00:58:08.754Z,60.33
2018-05-18T01:00:35.533Z,61.60
2018-05-18T01:03:01.550Z,56.03
2018-05-18T01:05:28.330Z,62.73
2018-05-18T01:07:54.349Z,69.23
2018-05-18T01:10:20.384Z,60.13
2018-05-18T01:12:46.397Z,63.90
2018-05-18T01:15:13.174Z,61.93
2018-05-18T01:17:39.203Z,56.13
2018-05-18T01:20:05.981Z,56.97
2018-05-18T01:22:32.001Z,56.47
2018-05-18T01:24:58.036Z,48.67
2018-05-18T01:27:24.238Z,73.00
2018-05-18T01:29:50.259Z,51.00
2018-05-18T01:32:16.282Z,55.87
2018-05-18T01:34:42.306Z,58.97
2018-05-18T01:37:08.333Z,65.80
2018-05-18T01:39:34.378Z,79.33
2018-05-18T01:42:00.410Z,61.00
2018-05-18T01:44:26.425Z,47.90
2018-05-18T01:46:52.454Z,60.00
2018-05-18T01:49:19.226Z,47.83
2018-05-18T01:51:45.245Z,53.93
2018-05-18T01:54:11.264Z,55.87
2018-05-18T01:56:38.007Z,57.97
2018-05-18T01:59:04.006Z,43.60
2018-05-18T02:01:30.001Z,47.50
2018-05-18T02:03:56.741Z,50.93
2018-05-18T02:06:23.481Z,51.07
2018-05-18T02:08:49.488Z,58.80
2018-05-18T02:11:15.489Z,53.27
2018-05-18T02:13:41.480Z,53.60
2018-05-18T02:16:07.478Z,49.20
2018-05-18T02:18:33.462Z,44.17
2018-05-18T02:20:59.457Z,42.47
2018-05-18T02:23:25.445Z,60.07
2018-05-18T02:25:52.189Z,47.60
2018-05-18T02:28:18.242Z,45.87
2018-05-18T02:30:45.007Z,52.73
2018-05-18T02:33:11.042Z,54.43
2018-05-18T02:35:37.066Z,52.27
2018-05-18T02:38:03.890Z,54.77
2018-05-18T02:40:29.925Z,53.90
2018-05-18T02:42:55.957Z,62.47
2018-05-18T02:45:22.019Z,62.93
2018-05-18T02:47:48.019Z,47.40
2018-05-18T02:50:14.042Z,52.43
2018-05-18T02:52:40.098Z,53.17
2018-05-18T02:55:06.123Z,62.50
2018-05-18T02:57:32.151Z,54.23
2018-05-18T02:59:58.172Z,53.17
2018-05-18T03:02:24.196Z,59.33
2018-05-18T03:04:50.226Z,51.00
2018-05-18T03:07:16.309Z,57.80
2018-05-18T03:09:42.321Z,63.07
2018-05-18T03:12:08.347Z,57.10
2018-05-18T03:14:34.392Z,50.57
2018-05-18T03:17:00.488Z,62.87
2018-05-18T03:19:26.414Z,60.13
2018-05-18T03:21:53.905Z,54.63
2018-05-18T03:24:20.654Z,59.87
2018-05-18T03:26:47.418Z,54.00
2018-05-18T03:29:13.425Z,61.23
2018-05-18T03:31:39.444Z,71.90
2018-05-18T03:34:05.466Z,63.60
2018-05-18T03:36:31.481Z,67.23
2018-05-18T03:38:57.496Z,64.67
2018-05-18T03:41:23.517Z,57.97
2018-05-18T03:43:50.321Z,66.47
2018-05-18T03:46:17.046Z,77.80
2018-05-18T03:48:43.068Z,55.30
2018-05-18T03:51:09.828Z,57.47
2018-05-18T03:53:35.917Z,67.63
2018-05-18T03:56:01.935Z,75.37
2018-05-18T03:58:27.959Z,69.07
2018-05-18T04:00:53.977Z,78.97
2018-05-18T04:03:32.354Z,60.77
2018-05-18T04:09:02.130Z,77.30
2018-05-18T04:11:28.146Z,60.03
2018-05-18T04:13:54.179Z,69.17
2018-05-18T04:16:20.224Z,71.23
2018-05-18T04:18:46.245Z,63.80
2018-05-18T04:21:12.259Z,67.00
2018-05-18T04:23:39.417Z,63.40
2018-05-18T04:26:05.429Z,52.83
2018-05-18T04:28:32.190Z,71.30
2018-05-18T04:30:58.938Z,57.67
2018-05-18T04:33:25.700Z,62.70
2018-05-18T04:35:51.714Z,50.00
2018-05-18T04:38:18.479Z,50.83
2018-05-18T04:40:45.240Z,46.10
2018-05-18T04:43:11.367Z,40.37
2018-05-18T04:45:37.297Z,42.23
2018-05-18T04:48:04.060Z,43.57
2018-05-18T04:50:30.820Z,52.67
2018-05-18T04:52:56.853Z,46.50
2018-05-18T04:55:23.610Z,53.50
2018-05-18T04:57:49.627Z,50.97
2018-05-18T05:00:16.395Z,49.07
2018-05-18T05:02:43.158Z,43.07
2018-05-18T05:05:09.186Z,36.63
2018-05-18T05:07:35.221Z,50.73
2018-05-18T05:10:02.010Z,41.63
2018-05-18T05:12:28.099Z,39.33
2018-05-18T05:14:54.128Z,33.87
2018-05-18T05:17:20.145Z,43.03
2018-05-18T05:19:46.181Z,38.77
2018-05-18T05:22:12.215Z,36.33
2018-05-18T05:24:38.242Z,34.70
2018-05-18T05:27:04.278Z,38.40
2018-05-18T05:29:30.322Z,27.63
2018-05-18T05:31:56.350Z,43.67
2018-05-18T05:34:22.381Z,47.80
2018-05-18T05:36:48.457Z,30.23
2018-05-18T05:39:14.456Z,32.23
2018-05-18T05:41:40.475Z,40.50
2018-05-18T05:44:06.500Z,28.10
2018-05-18T05:46:32.529Z,37.20
2018-05-18T05:48:58.574Z,40.50
2018-05-18T05:51:24.608Z,35.03
2018-05-18T05:53:50.638Z,40.83
2018-05-18T05:56:16.675Z,31.60
2018-05-18T05:58:42.754Z,35.97
2018-05-18T06:01:08.785Z,31.53
2018-05-18T06:03:34.821Z,37.93
2018-05-18T06:06:00.832Z,48.40
2018-05-18T06:08:26.859Z,37.67
2018-05-18T06:10:52.889Z,42.17
2018-05-18T06:13:18.918Z,38.47
2018-05-18T06:15:44.942Z,33.53
2018-05-18T06:18:11.693Z,37.20
2018-05-18T06:20:38.467Z,34.70
2018-05-18T06:23:04.493Z,39.93
2018-05-18T06:25:31.257Z,29.63
2018-05-18T06:27:57.310Z,40.40
2018-05-18T06:30:23.354Z,37.83
2018-05-18T06:32:49.371Z,24.90
2018-05-18T06:35:15.555Z,29.20
2018-05-18T06:37:41.423Z,34.10
2018-05-18T06:40:08.177Z,26.30
2018-05-18T06:42:34.950Z,30.60
2018-05-18T06:45:00.997Z,30.87
2018-05-18T06:47:27.013Z,28.53
2018-05-18T06:49:53.022Z,32.40
2018-05-18T06:52:19.787Z,26.80
2018-05-18T06:54:46.543Z,22.10
2018-05-18T06:57:13.298Z,21.57
2018-05-18T06:59:40.050Z,29.00
2018-05-18T07:02:06.073Z,27.60
2018-05-18T07:04:32.822Z,28.07
2018-05-18T07:06:58.865Z,24.00
2018-05-18T07:09:25.626Z,23.63
2018-05-18T07:11:52.379Z,27.00
2018-05-18T07:14:19.141Z,28.07
2018-05-18T07:16:45.241Z,25.27
2018-05-18T07:19:11.254Z,25.97
2018-05-18T07:21:37.283Z,25.07
2018-05-18T07:24:03.298Z,28.07
2018-05-18T07:26:29.346Z,25.77
2018-05-18T07:28:55.390Z,30.33
2018-05-18T07:31:39.901Z,21.23
2018-05-18T07:34:05.919Z,29.10
2018-05-18T07:36:31.931Z,24.00
2018-05-18T07:38:57.935Z,20.27
2018-05-18T07:41:23.941Z,24.27
2018-05-18T07:43:50.039Z,25.93
2018-05-18T07:46:16.054Z,27.67
2018-05-18T07:48:41.999Z,25.77
2018-05-18T07:51:07.996Z,27.13
2018-05-18T07:53:34.757Z,24.43
2018-05-18T07:56:00.750Z,30.37
2018-05-18T07:58:26.793Z,34.10
2018-05-18T08:00:52.793Z,21.67
2018-05-18T08:03:18.809Z,30.90
2018-05-18T08:05:44.816Z,30.77
2018-05-18T08:08:10.835Z,27.53
2018-05-18T08:10:36.850Z,28.63
2018-05-18T08:13:02.857Z,27.10
2018-05-18T08:15:28.869Z,32.97
2018-05-18T08:17:55.634Z,38.20
2018-05-18T08:20:22.429Z,22.83
2018-05-18T08:22:48.450Z,22.70
2018-05-18T08:25:14.463Z,23.70
2018-05-18T08:27:41.286Z,31.17
2018-05-18T08:30:07.244Z,27.97
2018-05-18T08:32:34.002Z,30.03
2018-05-18T08:35:00.756Z,28.10
2018-05-18T08:37:26.779Z,34.83
2018-05-18T08:39:53.516Z,32.40
2018-05-18T08:42:19.546Z,31.80
2018-05-18T08:44:45.545Z,32.13
2018-05-18T08:47:11.559Z,31.47
2018-05-18T08:49:38.330Z,31.83
2018-05-18T08:52:04.347Z,33.83
2018-05-18T08:54:30.353Z,41.33
2018-05-18T08:56:57.841Z,35.67
2018-05-18T08:59:24.606Z,29.90
2018-05-18T09:01:50.614Z,28.50
2018-05-18T09:04:17.392Z,41.70
2018-05-18T09:06:44.138Z,29.07
2018-05-18T09:09:10.893Z,24.90
2018-05-18T09:11:37.652Z,32.13
2018-05-18T09:14:03.661Z,40.07
2018-05-18T09:16:29.661Z,26.80
2018-05-18T09:18:55.677Z,32.57
2018-05-18T09:21:21.674Z,31.17
2018-05-18T09:23:47.677Z,29.97
2018-05-18T09:26:13.687Z,32.37
2018-05-18T09:28:39.692Z,25.07
2018-05-18T09:31:06.441Z,24.67
2018-05-18T09:33:33.226Z,29.50
2018-05-18T09:35:59.237Z,25.13
2018-05-18T09:38:25.986Z,29.23
2018-05-18T09:40:52.740Z,29.33
2018-05-18T09:43:19.502Z,27.60
2018-05-18T09:45:46.256Z,35.57
2018-05-18T09:48:12.269Z,32.93
2018-05-18T09:50:38.278Z,29.67
2018-05-18T09:53:04.300Z,94.83
2018-05-18T09:55:30.473Z,29.47
2018-05-18T09:57:56.321Z,27.67
2018-05-18T10:00:23.079Z,34.53
2018-05-18T10:02:49.842Z,30.50
2018-05-18T10:05:15.859Z,27.43
2018-05-18T10:07:42.618Z,26.33
2018-05-18T10:10:09.396Z,30.60
2018-05-18T10:12:35.398Z,22.23
2018-05-18T10:15:02.155Z,27.30
2018-05-18T10:17:28.898Z,33.50
2018-05-18T10:19:54.914Z,31.60
2018-05-18T10:22:20.919Z,36.03
2018-05-18T10:24:46.932Z,24.07
2018-05-18T10:27:12.939Z,27.97
2018-05-18T10:29:38.947Z,31.40
2018-05-18T10:32:04.963Z,20.00
2018-05-18T10:34:30.970Z,29.80
2018-05-18T10:36:57.717Z,27.23
2018-05-18T10:39:24.470Z,28.23
2018-05-18T10:41:51.210Z,21.90
2018-05-18T10:44:17.210Z,26.80
2018-05-18T10:46:43.263Z,26.40
2018-05-18T10:49:09.323Z,25.43
2018-05-18T10:51:36.153Z,27.40
2018-05-18T10:54:02.180Z,30.23
2018-05-18T10:56:28.192Z,26.43
2018-05-18T10:58:54.202Z,28.77
2018-05-18T11:01:20.950Z,24.37
2018-05-18T11:03:47.714Z,19.90
2018-05-18T11:06:13.747Z,23.93
2018-05-18T11:08:39.778Z,29.93
2018-05-18T11:11:06.545Z,18.10
2018-05-18T11:13:32.566Z,20.10
2018-05-18T11:15:59.337Z,21.93
2018-05-18T11:18:25.393Z,28.13
2018-05-18T11:20:51.439Z,27.20
2018-05-18T11:23:17.450Z,19.30
2018-05-18T11:25:43.484Z,29.67
2018-05-18T11:28:09.513Z,19.77
2018-05-18T11:30:35.534Z,26.17
2018-05-18T11:33:02.284Z,25.53
2018-05-18T11:35:29.050Z,21.13
2018-05-18T11:37:55.798Z,24.30
2018-05-18T11:40:22.567Z,23.83
2018-05-18T11:42:48.687Z,22.73
2018-05-18T11:45:15.437Z,27.73
2018-05-18T11:47:42.206Z,32.13
2018-05-18T11:50:08.235Z,27.80
2018-05-18T11:52:34.259Z,20.93
2018-05-18T11:55:01.062Z,30.30
2018-05-18T11:57:27.086Z,29.20
2018-05-18T11:59:53.103Z,27.40
2018-05-18T12:02:19.192Z,26.00
2018-05-18T12:04:45.232Z,23.10
2018-05-18T12:07:11.267Z,32.40
2018-05-18T12:09:37.281Z,22.83
2018-05-18T12:12:03.306Z,31.85
2018-05-18T12:14:29.336Z,20.90
2018-05-18T12:16:55.356Z,23.20
2018-05-18T12:19:21.417Z,39.17
2018-05-18T12:21:47.453Z,20.87
2018-05-18T12:24:13.467Z,25.57
2018-05-18T12:26:39.510Z,26.00
2018-05-18T12:29:05.555Z,25.27
2018-05-18T12:31:31.666Z,27.30
2018-05-18T12:33:57.603Z,24.80
2018-05-18T12:36:23.636Z,24.07
2018-05-18T12:38:50.402Z,23.50
2018-05-18T12:41:16.409Z,27.00
2018-05-18T12:43:42.433Z,21.73
2018-05-18T12:46:08.447Z,26.80
2018-05-18T12:48:34.938Z,17.10
2018-05-18T12:51:01.690Z,27.00
2018-05-18T12:53:28.475Z,24.07
2018-05-18T12:55:54.485Z,32.33
2018-05-18T12:58:21.245Z,23.33
2018-05-18T13:00:47.254Z,27.20
2018-05-18T13:03:13.270Z,23.23
2018-05-18T13:05:39.288Z,17.43
2018-05-18T13:08:05.389Z,20.43
2018-05-18T13:10:31.364Z,21.73
2018-05-18T13:12:57.373Z,16.80
2018-05-18T13:15:23.374Z,25.23
2018-05-18T13:17:49.393Z,23.67
2018-05-18T13:20:15.400Z,22.23
2018-05-18T13:22:41.413Z,22.37
2018-05-18T13:25:07.463Z,27.20
2018-05-18T13:27:33.451Z,20.47
2018-05-18T13:29:59.467Z,20.00
2018-05-18T13:32:25.486Z,22.27
2018-05-18T13:34:51.510Z,27.13
2018-05-18T13:37:17.520Z,19.37
2018-05-18T13:39:43.544Z,19.50
2018-05-18T13:42:10.304Z,17.70
2018-05-18T13:44:37.058Z,21.47
2018-05-18T13:47:03.073Z,23.13
2018-05-18T13:49:29.084Z,19.20
2018-05-18T13:51:55.085Z,21.53
2018-05-18T13:54:21.291Z,21.67
2018-05-18T13:56:48.043Z,20.83
2018-05-18T13:59:14.052Z,21.27
2018-05-18T14:01:40.068Z,19.07
2018-05-18T14:04:06.094Z,23.87
2018-05-18T14:06:32.120Z,20.87
2018-05-18T14:08:58.138Z,20.53
2018-05-18T14:11:24.892Z,16.40
2018-05-18T14:13:50.909Z,31.70
2018-05-18T14:16:17.657Z,27.90
2018-05-18T14:18:43.671Z,18.27
2018-05-18T14:21:09.687Z,21.13
2018-05-18T14:23:35.698Z,21.43
2018-05-18T14:26:01.720Z,23.63
2018-05-18T14:28:28.476Z,23.93
2018-05-18T14:30:54.487Z,14.27
2018-05-18T14:33:20.493Z,13.80
2018-05-18T14:35:46.536Z,17.47
2018-05-18T14:38:12.598Z,19.23
2018-05-18T14:40:38.559Z,29.23
2018-05-18T14:43:04.653Z,28.83
2018-05-18T14:45:31.343Z,25.10
2018-05-18T14:47:58.077Z,21.00
2018-05-18T14:50:24.086Z,22.87
2018-05-18T14:52:50.092Z,21.07
2018-05-18T14:55:16.112Z,19.30
2018-05-18T14:57:42.179Z,20.57
2018-05-18T15:00:08.138Z,18.40
2018-05-18T15:02:34.259Z,21.73
2018-05-18T15:05:00.278Z,21.30
2018-05-18T15:07:26.295Z,21.30
2018-05-18T15:09:52.318Z,21.20
2018-05-18T15:12:19.061Z,19.20
2018-05-18T15:14:45.825Z,22.73
2018-05-18T15:17:12.563Z,23.70
2018-05-18T15:19:39.382Z,18.90
2018-05-18T15:22:05.401Z,20.33
2018-05-18T15:24:31.408Z,20.17
2018-05-18T15:26:58.165Z,21.27
2018-05-18T15:29:24.209Z,22.33
2018-05-18T15:31:50.273Z,15.73
2018-05-18T15:34:16.281Z,23.13
2018-05-18T15:36:42.289Z,19.63
2018-05-18T15:39:09.062Z,21.73
2018-05-18T15:41:35.088Z,23.47
2018-05-18T15:44:01.838Z,16.60
2018-05-18T15:46:28.595Z,21.13
2018-05-18T15:48:55.573Z,20.60
2018-05-18T15:51:21.583Z,27.73
2018-05-18T15:53:48.325Z,23.47
2018-05-18T15:56:14.428Z,22.30
2018-05-18T15:58:40.434Z,18.77
2018-05-18T16:01:06.446Z,19.07
2018-05-18T16:03:33.198Z,19.00
2018-05-18T16:05:59.974Z,14.50
2018-05-18T16:08:26.001Z,19.10
2018-05-18T16:10:52.011Z,17.20
2018-05-18T16:13:18.022Z,21.20
2018-05-18T16:15:44.077Z,25.50
2018-05-18T16:18:10.077Z,24.73
2018-05-18T16:20:36.077Z,15.50
2018-05-18T16:23:02.838Z,18.50
2018-05-18T16:25:28.841Z,19.13
2018-05-18T16:27:54.886Z,21.83
2018-05-18T16:30:20.870Z,17.60
2018-05-18T16:32:46.922Z,21.67
2018-05-18T16:35:12.922Z,17.90
2018-05-18T16:37:38.948Z,19.80
2018-05-18T16:40:05.719Z,18.20
2018-05-18T16:42:32.072Z,15.97
2018-05-18T16:44:58.120Z,13.27
2018-05-18T16:47:24.430Z,14.43
2018-05-18T16:49:50.485Z,18.47
2018-05-18T16:52:16.790Z,11.97
2018-05-18T16:54:43.598Z,22.77
2018-05-18T16:57:09.634Z,15.43
2018-05-18T16:59:35.670Z,26.07
2018-05-18T17:02:01.751Z,18.87
2018-05-18T17:04:28.772Z,20.53
2018-05-18T17:06:54.934Z,17.73
2018-05-18T17:09:21.066Z,18.00
2018-05-18T17:11:47.097Z,21.23
2018-05-18T17:14:13.133Z,16.70
2018-05-18T17:16:39.189Z,21.27
2018-05-18T17:19:05.301Z,21.60
2018-05-18T17:21:31.321Z,16.70
2018-05-18T17:23:57.342Z,18.00
2018-05-18T17:26:23.354Z,23.73
2018-05-18T17:28:50.111Z,20.57
2018-05-18T17:31:16.869Z,14.67
2018-05-18T17:33:42.891Z,20.10
2018-05-18T17:36:09.833Z,16.07
2018-05-18T17:38:35.964Z,16.87
2018-05-18T17:41:02.090Z,13.70
2018-05-18T17:43:28.238Z,17.30
2018-05-18T17:45:54.381Z,26.33
2018-05-18T17:48:20.549Z,14.57
2018-05-18T17:50:47.366Z,18.13
2018-05-18T17:53:13.381Z,17.07
2018-05-18T17:55:39.401Z,16.87
2018-05-18T17:58:05.593Z,18.90
2018-05-18T18:00:31.674Z,22.63
2018-05-18T18:02:57.696Z,24.47
2018-05-18T18:05:23.852Z,22.17
2018-05-18T18:07:49.999Z,12.73
2018-05-18T18:10:16.269Z,13.73
2018-05-18T18:12:42.274Z,12.57
2018-05-18T18:15:08.287Z,17.17
2018-05-18T18:17:34.297Z,16.80
2018-05-18T18:20:01.045Z,23.27
2018-05-18T18:22:27.155Z,21.53
2018-05-18T18:24:53.184Z,17.83
2018-05-18T18:27:19.201Z,26.90
2018-05-18T18:29:45.446Z,15.97
2018-05-18T18:32:11.623Z,15.83
2018-05-18T18:34:37.650Z,23.37
2018-05-18T18:37:03.674Z,23.20
2018-05-18T18:39:29.778Z,12.93
2018-05-18T18:41:55.901Z,23.63
2018-05-18T18:44:22.866Z,15.50
2018-05-18T18:46:49.715Z,15.87
2018-05-18T18:49:16.487Z,17.83
2018-05-18T18:51:42.590Z,25.03
2018-05-18T18:54:08.654Z,18.00
2018-05-18T18:56:34.695Z,25.53
2018-05-18T18:59:00.703Z,25.90
2018-05-18T19:01:27.530Z,27.80
2018-05-18T19:03:53.590Z,31.00
2018-05-18T19:06:20.426Z,27.93
2018-05-18T19:08:46.458Z,37.57
2018-05-18T19:11:12.583Z,28.67
2018-05-18T19:13:38.614Z,27.53
2018-05-18T19:16:04.778Z,31.90
2018-05-18T19:18:31.088Z,23.60
2018-05-18T19:20:57.144Z,31.97
2018-05-18T19:23:23.159Z,28.60
2018-05-18T19:25:49.330Z,28.60
2018-05-18T19:28:15.710Z,33.27
2018-05-18T19:30:41.725Z,43.43
2018-05-18T19:33:07.735Z,30.20
2018-05-18T19:35:34.027Z,31.07
2018-05-18T19:38:00.025Z,27.40
2018-05-18T19:40:26.501Z,35.67
2018-05-18T19:42:53.490Z,30.17
2018-05-18T19:45:19.510Z,41.43
2018-05-18T19:47:45.517Z,31.30
2018-05-18T19:50:12.297Z,33.67
2018-05-18T19:52:38.351Z,35.33
2018-05-18T19:55:04.419Z,37.80
2018-05-18T19:57:30.450Z,31.53
2018-05-18T19:59:56.457Z,30.63
2018-05-18T20:02:22.538Z,37.90
2018-05-18T20:04:48.582Z,30.53
2018-05-18T20:07:14.566Z,35.60
2018-05-18T20:09:40.555Z,33.17
2018-05-18T20:12:06.515Z,32.33
2018-05-18T20:14:33.214Z,31.33
2018-05-18T20:16:59.182Z,49.53
2018-05-18T20:19:25.139Z,30.27
2018-05-18T20:21:51.852Z,34.13
2018-05-18T20:24:17.814Z,25.63
2018-05-18T20:26:44.598Z,27.97
2018-05-18T20:29:10.571Z,23.33
2018-05-18T20:31:36.543Z,37.37
2018-05-18T20:34:03.283Z,28.87
2018-05-18T20:36:29.258Z,23.20
2018-05-18T20:38:55.215Z,22.03
2018-05-18T20:41:21.238Z,25.30
2018-05-18T20:43:47.244Z,24.90
2018-05-18T20:46:13.242Z,29.87
2018-05-18T20:48:39.214Z,24.07
2018-05-18T20:51:05.196Z,28.70
2018-05-18T20:53:31.162Z,30.43
2018-05-18T20:55:57.122Z,24.33
2018-05-18T20:58:23.082Z,26.77
2018-05-18T21:00:49.055Z,35.10
2018-05-18T21:03:15.016Z,24.20
2018-05-18T21:05:41.742Z,29.17
2018-05-18T21:08:07.699Z,27.00
2018-05-18T21:10:34.486Z,27.30
2018-05-18T21:13:00.388Z,27.03
2018-05-18T21:15:27.082Z,24.60
2018-05-18T21:17:53.056Z,30.77
2018-05-18T21:20:19.032Z,32.67
2018-05-18T21:22:45.013Z,24.70
2018-05-18T21:25:10.984Z,24.10
2018-05-18T21:27:37.700Z,26.60
2018-05-18T21:30:03.672Z,28.43
2018-05-18T21:32:29.716Z,23.80
2018-05-18T21:34:55.720Z,25.73
2018-05-18T21:37:21.644Z,23.77
2018-05-18T21:39:47.608Z,24.50
2018-05-18T21:42:14.351Z,25.40
2018-05-18T21:44:41.090Z,22.90
2018-05-18T21:47:07.130Z,25.30
2018-05-18T21:49:33.025Z,25.37
2018-05-18T21:51:58.987Z,30.30
2018-05-18T21:54:25.710Z,25.33
2018-05-18T21:56:51.679Z,28.33
2018-05-18T21:59:17.726Z,28.87
2018-05-18T22:01:43.691Z,29.60
2018-05-18T22:04:09.650Z,25.97
2018-05-18T22:06:35.628Z,28.83
2018-05-18T22:09:01.595Z,28.73
2018-05-18T22:11:27.550Z,38.17
2018-05-18T22:13:53.524Z,34.83
2018-05-18T22:16:19.584Z,29.43
2018-05-18T22:18:46.579Z,28.90
2018-05-18T22:21:12.534Z,28.33
2018-05-18T22:23:38.508Z,26.17
2018-05-18T22:26:05.240Z,30.33
2018-05-18T22:28:31.216Z,28.80
2018-05-18T22:30:57.176Z,29.57
2018-05-18T22:33:23.155Z,24.43
2018-05-18T22:35:49.120Z,38.60
2018-05-18T22:38:15.087Z,30.00
2018-05-18T22:40:41.059Z,37.17
2018-05-18T22:43:07.775Z,28.40
2018-05-18T22:45:34.479Z,32.47
2018-05-18T22:48:00.460Z,30.27
2018-05-18T22:50:26.531Z,42.57
2018-05-18T22:52:52.495Z,44.13
2018-05-18T22:55:18.464Z,36.70
2018-05-18T22:57:44.422Z,33.50
2018-05-18T23:00:10.387Z,34.27
2018-05-18T23:02:37.117Z,36.50
2018-05-18T23:05:03.088Z,41.03
2018-05-18T23:07:29.068Z,46.07
2018-05-18T23:09:55.026Z,37.87
2018-05-18T23:12:20.970Z,34.63
2018-05-18T23:14:47.658Z,26.40
2018-05-18T23:17:13.610Z,51.73
2018-05-18T23:19:39.578Z,35.70
2018-05-18T23:22:05.531Z,40.43
2018-05-18T23:24:32.232Z,36.37
2018-05-18T23:26:58.179Z,28.60
2018-05-18T23:29:24.148Z,32.80
2018-05-18T23:31:50.871Z,37.27
2018-05-18T23:34:16.824Z,32.17
2018-05-18T23:36:43.515Z,31.00
2018-05-18T23:39:09.476Z,34.77
2018-05-18T23:41:35.423Z,36.30
2018-05-18T23:44:01.374Z,32.13
2018-05-18T23:46:27.327Z,26.97
2018-05-18T23:48:54.032Z,29.80
2018-05-18T23:51:19.991Z,38.17
2018-05-18T23:53:45.954Z,30.63
2018-05-18T23:56:12.634Z,39.20
2018-05-18T23:58:38.592Z,27.07
